Time;durP1;ratioP1;P1;durP2;ratioP2;P2;SDS_P1;SDS_P2;PMS_P1;PMS_P2;Temp;Humidity;BMP_temperature;BMP_pressure;BME280_temperature;BME280_humidity;BME280_pressure;Samples;Min_cycle;Max_cycle;Signal;HPM_P1;HPM_P2
2022/04/16 00:03:45;;;;;;;3.33;1.67;;;;;;;;;;12661467;23;20276;-71
2022/04/16 00:08:46;;;;;;;1.45;1.45;;;;;;;;;;12662644;23;20216;-71
2022/04/16 00:13:50;;;;;;;1.75;1.70;;;;;;;;;;12661982;23;20271;-71
2022/04/16 00:18:51;;;;;;;3.50;1.90;;;;;;;;;;12661751;23;20196;-73
2022/04/16 00:23:53;;;;;;;2.50;1.75;;;;;;;;;;12661408;23;20192;-72
2022/04/16 00:28:54;;;;;;;1.85;1.83;;;;;;;;;;12630453;23;20185;-72
2022/04/16 00:33:55;;;;;;;2.05;1.55;;;;;;;;;;12658589;23;20204;-71
2022/04/16 00:38:56;;;;;;;1.55;1.55;;;;;;;;;;12660419;23;20185;-71
2022/04/16 00:43:57;;;;;;;2.08;1.83;;;;;;;;;;12660450;23;20279;-70
2022/04/16 00:48:58;;;;;;;1.90;1.80;;;;;;;;;;12660631;23;20181;-71
2022/04/16 00:54:00;;;;;;;2.03;1.88;;;;;;;;;;12658469;23;20223;-72
2022/04/16 00:59:02;;;;;;;2.47;1.77;;;;;;;;;;12659368;23;20837;-71
2022/04/16 01:04:03;;;;;;;1.65;1.55;;;;;;;;;;12659110;23;20208;-72
2022/04/16 01:09:05;;;;;;;2.45;1.50;;;;;;;;;;12658905;23;20229;-72
2022/04/16 01:14:06;;;;;;;1.35;1.27;;;;;;;;;;12660233;23;20264;-72
2022/04/16 01:19:14;;;;;;;1.73;1.40;;;;;;;;;;12659802;23;20177;-72
2022/04/16 01:24:15;;;;;;;1.52;1.30;;;;;;;;;;12659770;23;20181;-71
2022/04/16 01:29:16;;;;;;;2.78;1.40;;;;;;;;;;12661233;23;20648;-72
2022/04/16 01:34:18;;;;;;;2.55;1.05;;;;;;;;;;12632246;23;20205;-72
2022/04/16 01:39:19;;;;;;;1.60;1.40;;;;;;;;;;12659977;23;20181;-72
2022/04/16 01:44:20;;;;;;;2.25;1.45;;;;;;;;;;12658092;23;20213;-72
2022/04/16 01:49:21;;;;;;;1.80;1.25;;;;;;;;;;12657910;23;20177;-72
2022/04/16 01:54:22;;;;;;;2.10;1.20;;;;;;;;;;12658550;23;20685;-71
2022/04/16 01:59:25;;;;;;;3.47;1.25;;;;;;;;;;12658021;23;20191;-72
2022/04/16 02:04:26;;;;;;;2.10;1.48;;;;;;;;;;12653427;23;20208;-72
2022/04/16 02:09:27;;;;;;;3.50;1.88;;;;;;;;;;12653883;23;20185;-71
2022/04/16 02:14:28;;;;;;;1.48;1.42;;;;;;;;;;12654063;23;20240;-70
2022/04/16 02:19:29;;;;;;;5.63;1.33;;;;;;;;;;12656874;23;20204;-71
2022/04/16 02:24:30;;;;;;;1.80;1.70;;;;;;;;;;12657862;23;20185;-72
2022/04/16 02:29:31;;;;;;;2.53;2.22;;;;;;;;;;12657535;23;20193;-71
2022/04/16 02:34:33;;;;;;;1.30;1.10;;;;;;;;;;12656754;23;20912;-71
2022/04/16 02:39:34;;;;;;;3.28;1.33;;;;;;;;;;12656908;23;20184;-71
2022/04/16 02:49:55;;;;;;;2.03;1.60;;;;;;;;;;12601705;23;20225;-72
2022/04/16 02:54:56;;;;;;;1.85;1.67;;;;;;;;;;12602301;23;20229;-71
2022/04/16 02:59:57;;;;;;;2.30;1.65;;;;;;;;;;12601531;23;20201;-71
2022/04/16 03:04:58;;;;;;;2.50;1.60;;;;;;;;;;12594005;23;20236;-72
2022/04/16 03:09:59;;;;;;;1.60;1.50;;;;;;;;;;12601361;23;20276;-71
2022/04/16 03:20:23;;;;;;;1.75;1.67;;;;;;;;;;12602251;23;20268;-72
2022/04/16 03:25:25;;;;;;;3.97;1.88;;;;;;;;;;12601035;23;20184;-71
2022/04/16 03:30:26;;;;;;;2.88;1.75;;;;;;;;;;12599139;23;20173;-72
2022/04/16 03:35:27;;;;;;;2.22;1.80;;;;;;;;;;12600572;23;20202;-72
2022/04/16 03:40:28;;;;;;;1.80;1.70;;;;;;;;;;12611480;23;20541;-71
2022/04/16 03:45:30;;;;;;;1.92;1.65;;;;;;;;;;12658998;23;20181;-72
2022/04/16 03:50:32;;;;;;;1.98;1.85;;;;;;;;;;12661988;23;20899;-72
2022/04/16 04:00:53;;;;;;;2.17;2.08;;;;;;;;;;12657864;23;20588;-72
2022/04/16 04:05:56;;;;;;;2.90;1.92;;;;;;;;;;12660273;23;20181;-72
2022/04/16 04:10:57;;;;;;;2.42;2.22;;;;;;;;;;12656987;23;20189;-72
2022/04/16 04:15:58;;;;;;;3.90;2.50;;;;;;;;;;12659715;23;20208;-72
2022/04/16 04:21:00;;;;;;;3.20;2.37;;;;;;;;;;12660729;23;20189;-72
2022/04/16 04:26:01;;;;;;;4.20;2.63;;;;;;;;;;12633098;23;20255;-72
2022/04/16 04:31:02;;;;;;;2.75;2.25;;;;;;;;;;12658587;23;20336;-72
2022/04/16 04:36:03;;;;;;;2.73;2.20;;;;;;;;;;12659664;23;20195;-72
2022/04/16 04:41:04;;;;;;;3.17;2.70;;;;;;;;;;12653188;23;20200;-72
2022/04/16 04:46:05;;;;;;;4.00;2.75;;;;;;;;;;12658862;23;20271;-71
2022/04/16 04:51:06;;;;;;;5.40;2.67;;;;;;;;;;12660045;23;20939;-71
2022/04/16 04:56:07;;;;;;;3.45;3.15;;;;;;;;;;12661155;23;20919;-71
2022/04/16 05:01:08;;;;;;;2.75;2.65;;;;;;;;;;12656971;23;20288;-71
2022/04/16 05:06:09;;;;;;;3.67;3.30;;;;;;;;;;12658501;23;20181;-71
2022/04/16 05:11:11;;;;;;;3.30;3.10;;;;;;;;;;12629598;23;20593;-72
2022/04/16 05:16:15;;;;;;;3.38;3.05;;;;;;;;;;12657049;23;20196;-72
2022/04/16 05:21:16;;;;;;;3.50;3.20;;;;;;;;;;12655730;23;20185;-72
2022/04/16 05:26:17;;;;;;;3.53;3.22;;;;;;;;;;12657186;23;20188;-71
2022/04/16 05:31:20;;;;;;;2.90;2.72;;;;;;;;;;12653256;23;20205;-72
2022/04/16 05:36:21;;;;;;;2.50;2.38;;;;;;;;;;12657431;23;20288;-72
2022/04/16 05:41:22;;;;;;;3.10;2.35;;;;;;;;;;12657296;23;20208;-71
2022/04/16 05:46:23;;;;;;;3.15;2.63;;;;;;;;;;12659205;23;20181;-72
2022/04/16 05:51:24;;;;;;;2.25;2.05;;;;;;;;;;12654466;23;20191;-72
2022/04/16 05:56:25;;;;;;;2.92;2.72;;;;;;;;;;12656231;23;20243;-72
2022/04/16 06:01:27;;;;;;;2.40;2.30;;;;;;;;;;12655310;23;20201;-72
2022/04/16 06:06:28;;;;;;;3.47;2.28;;;;;;;;;;12655203;23;20216;-72
2022/04/16 06:11:31;;;;;;;2.60;2.40;;;;;;;;;;12658889;23;20208;-72
2022/04/16 06:16:32;;;;;;;6.25;2.90;;;;;;;;;;12654869;23;20188;-72
2022/04/16 06:21:33;;;;;;;2.38;2.28;;;;;;;;;;12657562;23;20216;-72
2022/04/16 06:26:35;;;;;;;3.10;2.40;;;;;;;;;;12662291;23;20249;-71
2022/04/16 06:31:36;;;;;;;5.32;2.90;;;;;;;;;;12661209;23;20205;-72
2022/04/16 06:36:40;;;;;;;4.55;2.22;;;;;;;;;;12638164;23;20227;-72
2022/04/16 06:41:41;;;;;;;2.55;1.92;;;;;;;;;;12662170;23;20924;-72
2022/04/16 06:46:42;;;;;;;2.22;1.90;;;;;;;;;;12662329;23;20185;-72
2022/04/16 06:51:43;;;;;;;2.20;1.95;;;;;;;;;;12636944;23;20204;-72
2022/04/16 06:56:44;;;;;;;5.07;2.40;;;;;;;;;;12661497;23;20519;-72
2022/04/16 07:01:45;;;;;;;3.70;2.05;;;;;;;;;;12657749;23;20297;-73
2022/04/16 07:06:46;;;;;;;1.75;1.65;;;;;;;;;;12635619;23;20184;-71
2022/04/16 07:11:47;;;;;;;1.48;1.20;;;;;;;;;;12658340;23;20193;-72
2022/04/16 07:16:48;;;;;;;2.83;1.30;;;;;;;;;;12662398;23;20276;-72
2022/04/16 07:21:49;;;;;;;1.27;1.17;;;;;;;;;;12662793;23;20185;-72
2022/04/16 07:26:52;;;;;;;2.35;1.27;;;;;;;;;;12662134;23;20244;-72
2022/04/16 07:31:54;;;;;;;2.83;1.50;;;;;;;;;;12661581;23;20201;-72
2022/04/16 07:36:55;;;;;;;1.50;1.00;;;;;;;;;;12661999;23;20286;-73
2022/04/16 07:41:57;;;;;;;1.20;1.20;;;;;;;;;;12661775;23;20288;-71
2022/04/16 07:46:58;;;;;;;1.33;1.23;;;;;;;;;;12662090;23;20193;-72
2022/04/16 07:51:59;;;;;;;0.70;0.70;;;;;;;;;;12656392;23;20196;-70
2022/04/16 07:57:00;;;;;;;2.13;0.85;;;;;;;;;;12659632;23;20216;-71
2022/04/16 08:02:01;;;;;;;2.08;0.80;;;;;;;;;;12656328;23;20208;-72
2022/04/16 08:07:03;;;;;;;1.88;0.90;;;;;;;;;;12659620;23;20585;-71
2022/04/16 08:12:04;;;;;;;1.20;0.60;;;;;;;;;;12655484;23;20192;-71
2022/04/16 08:17:05;;;;;;;3.83;0.70;;;;;;;;;;12630563;23;20264;-71
2022/04/16 08:22:10;;;;;;;0.93;0.80;;;;;;;;;;12662237;23;20485;-74
2022/04/16 08:27:11;;;;;;;0.68;0.68;;;;;;;;;;12657156;23;20694;-71
2022/04/16 08:32:13;;;;;;;1.83;0.60;;;;;;;;;;12658549;23;20196;-75
2022/04/16 08:37:14;;;;;;;0.73;0.60;;;;;;;;;;12658740;23;20185;-72
2022/04/16 08:42:15;;;;;;;0.80;0.55;;;;;;;;;;12659447;23;20212;-78
2022/04/16 08:47:16;;;;;;;1.83;0.60;;;;;;;;;;12659827;23;20196;-76
2022/04/16 08:52:17;;;;;;;1.05;0.50;;;;;;;;;;12661604;23;20181;-79
2022/04/16 08:57:19;;;;;;;1.75;0.50;;;;;;;;;;12663398;23;20191;-80
2022/04/16 09:02:24;;;;;;;1.20;0.50;;;;;;;;;;12657534;23;20275;-80
2022/04/16 09:07:25;;;;;;;0.75;0.50;;;;;;;;;;12661560;23;20181;-80
2022/04/16 09:12:26;;;;;;;2.72;0.60;;;;;;;;;;12664416;23;20544;-80
2022/04/16 09:17:27;;;;;;;0.50;0.50;;;;;;;;;;12663059;23;20189;-77
2022/04/16 09:22:35;;;;;;;0.40;0.40;;;;;;;;;;12659954;23;20191;-81
2022/04/16 09:27:54;;;;;;;0.40;0.40;;;;;;;;;;12662509;23;20240;-80
2022/04/16 09:32:56;;;;;;;2.95;0.50;;;;;;;;;;12660685;23;20208;-80
2022/04/16 09:37:58;;;;;;;0.30;0.30;;;;;;;;;;12660262;23;20564;-80
2022/04/16 09:43:02;;;;;;;0.80;0.40;;;;;;;;;;12662468;23;20647;-79
2022/04/16 09:48:03;;;;;;;0.60;0.40;;;;;;;;;;12663260;23;20185;-80
2022/04/16 09:53:05;;;;;;;3.22;0.43;;;;;;;;;;12634286;23;20201;-80
2022/04/16 09:58:07;;;;;;;0.93;0.63;;;;;;;;;;12658839;23;20207;-78
2022/04/16 10:03:11;;;;;;;0.47;0.30;;;;;;;;;;12659656;23;20267;-76
2022/04/16 10:08:13;;;;;;;0.40;0.40;;;;;;;;;;12659928;23;20191;-77
2022/04/16 10:13:17;;;;;;;0.43;0.32;;;;;;;;;;12661941;23;20196;-77
2022/04/16 10:18:18;;;;;;;1.08;0.40;;;;;;;;;;12665399;23;20808;-78
2022/04/16 10:23:27;;;;;;;0.32;0.32;;;;;;;;;;12664448;23;20177;-80
2022/04/16 10:28:33;;;;;;;0.32;0.20;;;;;;;;;;12639432;23;20181;-79
2022/04/16 10:33:34;;;;;;;1.27;0.40;;;;;;;;;;12659818;23;20726;-78
2022/04/16 10:38:40;;;;;;;0.50;0.30;;;;;;;;;;12663236;23;20220;-79
2022/04/16 10:43:41;;;;;;;0.47;0.47;;;;;;;;;;12664536;23;20322;-78
2022/04/16 10:48:43;;;;;;;1.35;0.40;;;;;;;;;;12663738;23;20189;-79
2022/04/16 10:53:44;;;;;;;0.40;0.40;;;;;;;;;;12634708;23;20223;-77
2022/04/16 10:58:46;;;;;;;0.35;0.35;;;;;;;;;;12637035;23;20741;-77
2022/04/16 11:03:48;;;;;;;0.30;0.30;;;;;;;;;;12667685;23;20256;-78
2022/04/16 11:08:50;;;;;;;1.00;0.32;;;;;;;;;;12670314;23;20185;-79
2022/04/16 11:13:51;;;;;;;0.30;0.30;;;;;;;;;;12671694;23;20189;-78
2022/04/16 11:18:52;;;;;;;0.40;0.40;;;;;;;;;;12674913;23;20192;-77
2022/04/16 11:23:53;;;;;;;0.70;0.70;;;;;;;;;;12670529;23;20184;-75
2022/04/16 11:34:20;;;;;;;1.17;0.40;;;;;;;;;;12666053;23;20211;-75
2022/04/16 11:39:22;;;;;;;1.13;0.70;;;;;;;;;;12667729;23;20493;-75
2022/04/16 11:44:29;;;;;;;0.57;0.40;;;;;;;;;;12666774;23;20291;-75
2022/04/16 11:49:30;;;;;;;0.20;0.20;;;;;;;;;;12666075;23;20177;-75
2022/04/16 11:54:33;;;;;;;0.40;0.40;;;;;;;;;;12663561;23;20796;-76
2022/04/16 11:59:35;;;;;;;0.57;0.40;;;;;;;;;;12667640;23;20180;-77
2022/04/16 12:04:38;;;;;;;0.65;0.30;;;;;;;;;;12665330;23;20232;-74
2022/04/16 12:09:45;;;;;;;0.50;0.40;;;;;;;;;;12660477;23;20517;-75
2022/04/16 12:14:50;;;;;;;0.68;0.60;;;;;;;;;;12659122;23;20275;-71
2022/04/16 12:20:02;;;;;;;0.40;0.40;;;;;;;;;;12658807;23;20332;-74
2022/04/16 12:25:10;;;;;;;1.23;0.30;;;;;;;;;;12658133;23;20284;-72
2022/04/16 12:30:14;;;;;;;2.22;0.60;;;;;;;;;;12661417;23;20215;-72
2022/04/16 12:35:17;;;;;;;1.48;1.10;;;;;;;;;;12658933;23;20683;-72
2022/04/16 12:40:19;;;;;;;0.30;0.30;;;;;;;;;;12661177;23;20193;-71
2022/04/16 12:45:20;;;;;;;0.30;0.30;;;;;;;;;;12659006;23;20657;-71
2022/04/16 12:50:22;;;;;;;0.20;0.20;;;;;;;;;;12657784;23;20579;-72
2022/04/16 12:55:23;;;;;;;0.30;0.30;;;;;;;;;;12653108;23;20530;-69
2022/04/16 13:00:24;;;;;;;1.65;0.50;;;;;;;;;;12628301;23;20177;-72
2022/04/16 13:05:26;;;;;;;0.20;0.20;;;;;;;;;;12633595;23;20181;-76
2022/04/16 13:10:27;;;;;;;0.60;0.40;;;;;;;;;;12659290;23;20260;-75
2022/04/16 13:15:28;;;;;;;1.67;0.30;;;;;;;;;;12661105;23;20188;-77
2022/04/16 13:20:30;;;;;;;0.50;0.50;;;;;;;;;;12660233;23;20296;-76
2022/04/16 13:25:33;;;;;;;0.40;0.40;;;;;;;;;;12657271;23;20216;-69
2022/04/16 13:30:34;;;;;;;0.30;0.30;;;;;;;;;;12654777;23;20217;-74
2022/04/16 13:35:35;;;;;;;0.50;0.50;;;;;;;;;;12657994;23;20200;-75
2022/04/16 13:45:56;;;;;;;0.30;0.30;;;;;;;;;;12658929;23;20228;-72
2022/04/16 13:50:58;;;;;;;0.47;0.30;;;;;;;;;;12657195;23;20193;-73
2022/04/16 13:55:59;;;;;;;0.30;0.30;;;;;;;;;;12656947;23;20808;-72
2022/04/16 14:01:00;;;;;;;0.30;0.30;;;;;;;;;;12659598;23;20208;-72
2022/04/16 14:06:01;;;;;;;0.20;0.20;;;;;;;;;;12657963;23;20177;-71
2022/04/16 14:11:02;;;;;;;0.95;0.20;;;;;;;;;;12659774;23;20207;-70
2022/04/16 14:16:04;;;;;;;0.20;0.20;;;;;;;;;;12657822;23;20207;-72
2022/04/16 14:21:09;;;;;;;0.28;0.28;;;;;;;;;;12658800;23;20208;-70
2022/04/16 14:26:10;;;;;;;0.15;0.15;;;;;;;;;;12659206;23;20177;-69
2022/04/16 14:31:12;;;;;;;0.85;0.60;;;;;;;;;;12653959;23;20201;-71
2022/04/16 14:36:14;;;;;;;0.25;0.25;;;;;;;;;;12652351;23;20528;-71
2022/04/16 14:41:17;;;;;;;1.15;0.30;;;;;;;;;;12652054;23;20205;-70
2022/04/16 14:46:18;;;;;;;0.30;0.30;;;;;;;;;;12659682;23;20192;-71
2022/04/16 14:51:20;;;;;;;0.20;0.20;;;;;;;;;;12637187;23;20189;-74
2022/04/16 14:56:21;;;;;;;0.30;0.30;;;;;;;;;;12661064;23;20188;-71
2022/04/16 15:01:22;;;;;;;0.65;0.45;;;;;;;;;;12659574;23;20224;-71
2022/04/16 15:06:23;;;;;;;1.08;0.80;;;;;;;;;;12634690;23;20184;-70
2022/04/16 15:11:24;;;;;;;0.20;0.20;;;;;;;;;;12660484;23;20185;-72
2022/04/16 15:16:25;;;;;;;0.52;0.20;;;;;;;;;;12657119;23;20192;-73
2022/04/16 15:21:26;;;;;;;0.40;0.30;;;;;;;;;;12660433;23;20172;-71
2022/04/16 15:26:27;;;;;;;0.20;0.20;;;;;;;;;;12660704;23;20189;-71
2022/04/16 15:31:36;;;;;;;0.30;0.30;;;;;;;;;;12658370;23;20510;-73
2022/04/16 15:36:37;;;;;;;2.72;0.30;;;;;;;;;;12632485;23;20195;-71
2022/04/16 15:41:38;;;;;;;1.48;0.30;;;;;;;;;;12658049;23;20211;-71
2022/04/16 15:46:40;;;;;;;1.20;0.52;;;;;;;;;;12661695;23;20187;-72
2022/04/16 15:51:41;;;;;;;0.30;0.30;;;;;;;;;;12660896;23;20657;-75
2022/04/16 15:56:42;;;;;;;0.30;0.30;;;;;;;;;;12661821;23;20277;-75
2022/04/16 16:01:43;;;;;;;0.25;0.25;;;;;;;;;;12658459;23;20196;-71
2022/04/16 16:06:44;;;;;;;0.30;0.30;;;;;;;;;;12661535;23;20644;-74
2022/04/16 16:11:45;;;;;;;0.20;0.20;;;;;;;;;;12635563;23;20231;-73
2022/04/16 16:16:46;;;;;;;1.05;0.82;;;;;;;;;;12659913;23;20221;-72
2022/04/16 16:21:47;;;;;;;1.75;1.75;;;;;;;;;;12661644;23;20177;-72
2022/04/16 16:26:48;;;;;;;4.75;2.97;;;;;;;;;;12661359;23;20256;-71
2022/04/16 16:31:49;;;;;;;2.22;2.13;;;;;;;;;;12661225;23;20209;-72
2022/04/16 16:36:50;;;;;;;1.50;1.50;;;;;;;;;;12661773;23;20209;-72
2022/04/16 16:41:52;;;;;;;2.75;2.25;;;;;;;;;;12660995;23;20261;-72
2022/04/16 16:46:55;;;;;;;1.55;1.52;;;;;;;;;;12654986;23;20185;-71
2022/04/16 16:51:56;;;;;;;0.75;0.75;;;;;;;;;;12651763;23;20173;-69
2022/04/16 16:56:58;;;;;;;1.25;1.15;;;;;;;;;;12653612;23;20192;-70
2022/04/16 17:01:59;;;;;;;1.45;1.45;;;;;;;;;;12629782;23;20949;-70
2022/04/16 17:12:20;;;;;;;2.47;2.33;;;;;;;;;;12657478;23;20177;-70
2022/04/16 17:22:42;;;;;;;0.82;0.82;;;;;;;;;;12660787;23;20211;-71
2022/04/16 17:27:46;;;;;;;2.45;2.00;;;;;;;;;;12656560;23;20189;-71
2022/04/16 17:32:47;;;;;;;2.10;1.63;;;;;;;;;;12658561;23;20553;-71
2022/04/16 17:37:50;;;;;;;1.50;1.40;;;;;;;;;;12658804;23;20175;-70
2022/04/16 17:42:52;;;;;;;2.75;2.65;;;;;;;;;;12659899;23;20248;-69
2022/04/16 17:47:57;;;;;;;2.15;1.95;;;;;;;;;;12660544;23;20212;-71
2022/04/16 17:52:58;;;;;;;2.45;2.42;;;;;;;;;;12661473;23;20189;-71
2022/04/16 17:58:00;;;;;;;1.90;1.80;;;;;;;;;;12660839;23;20248;-72
2022/04/16 18:03:01;;;;;;;5.47;4.97;;;;;;;;;;12658332;23;20216;-72
2022/04/16 18:08:02;;;;;;;7.35;6.72;;;;;;;;;;12659694;23;20259;-71
2022/04/16 18:13:04;;;;;;;6.15;5.80;;;;;;;;;;12660468;23;20196;-71
2022/04/16 18:18:06;;;;;;;11.93;10.80;;;;;;;;;;12660663;23;20820;-72
2022/04/16 18:23:07;;;;;;;6.78;6.18;;;;;;;;;;12665375;23;20643;-71
2022/04/16 18:28:08;;;;;;;7.40;6.80;;;;;;;;;;12661753;23;20177;-66
2022/04/16 18:33:09;;;;;;;43.38;24.63;;;;;;;;;;12662431;23;20632;-72
2022/04/16 18:38:10;;;;;;;19.98;12.35;;;;;;;;;;12661567;23;20169;-70
2022/04/16 18:43:11;;;;;;;11.68;10.18;;;;;;;;;;12662811;23;20215;-70
2022/04/16 18:48:12;;;;;;;4.32;3.95;;;;;;;;;;12661834;23;20193;-71
2022/04/16 18:53:13;;;;;;;5.00;4.63;;;;;;;;;;12633645;23;20193;-71
2022/04/16 18:58:14;;;;;;;10.00;8.07;;;;;;;;;;12659974;23;20201;-71
2022/04/16 19:08:35;;;;;;;9.77;8.90;;;;;;;;;;12658422;23;20199;-72
2022/04/16 19:13:37;;;;;;;7.68;7.00;;;;;;;;;;12657389;23;20201;-72
2022/04/16 19:18:39;;;;;;;10.77;9.77;;;;;;;;;;12657441;23;20177;-71
2022/04/16 19:23:40;;;;;;;11.00;9.52;;;;;;;;;;12662958;23;20185;-71
2022/04/16 19:28:41;;;;;;;10.88;9.23;;;;;;;;;;12660542;23;20589;-72
2022/04/16 19:33:42;;;;;;;9.40;8.45;;;;;;;;;;12658853;23;20319;-72
2022/04/16 19:38:43;;;;;;;9.88;9.00;;;;;;;;;;12657661;23;20181;-72
2022/04/16 19:43:44;;;;;;;9.75;8.88;;;;;;;;;;12657469;23;20231;-73
2022/04/16 19:48:46;;;;;;;7.60;6.85;;;;;;;;;;12659783;23;20840;-73
2022/04/16 19:53:48;;;;;;;7.22;6.57;;;;;;;;;;12659040;23;20647;-73
2022/04/16 19:58:49;;;;;;;8.38;7.88;;;;;;;;;;12659953;23;20189;-73
2022/04/16 20:03:50;;;;;;;11.60;10.45;;;;;;;;;;12655777;23;20205;-71
2022/04/16 20:14:24;;;;;;;11.13;10.13;;;;;;;;;;12610329;23;20669;-72
2022/04/16 20:19:25;;;;;;;11.10;9.90;;;;;;;;;;12662219;23;20257;-72
2022/04/16 20:24:28;;;;;;;11.38;10.23;;;;;;;;;;12660797;23;20196;-72
2022/04/16 20:29:29;;;;;;;10.75;9.65;;;;;;;;;;12662859;23;20189;-72
2022/04/16 20:34:30;;;;;;;10.52;9.50;;;;;;;;;;12658535;23;20304;-72
2022/04/16 20:50:27;;;;;;;8.65;7.85;;;;;;;;;;12596929;23;20269;-72
2022/04/16 20:55:31;;;;;;;9.40;8.60;;;;;;;;;;12661405;23;20199;-74
2022/04/16 21:00:33;;;;;;;9.20;8.40;;;;;;;;;;12659858;23;20192;-73
2022/04/16 21:05:34;;;;;;;8.75;8.02;;;;;;;;;;12661398;23;20629;-72
2022/04/16 21:10:35;;;;;;;7.15;6.57;;;;;;;;;;12633240;23;20188;-73
2022/04/16 21:15:37;;;;;;;4.30;4.13;;;;;;;;;;12660513;23;20208;-73
2022/04/16 21:20:38;;;;;;;3.70;3.40;;;;;;;;;;12660726;23;20176;-72
2022/04/16 21:25:39;;;;;;;3.28;3.10;;;;;;;;;;12660260;23;20240;-73
2022/04/16 21:30:40;;;;;;;4.65;4.45;;;;;;;;;;12660001;23;20279;-73
2022/04/16 21:35:41;;;;;;;8.38;5.32;;;;;;;;;;12636029;23;20205;-73
2022/04/16 21:40:42;;;;;;;3.88;3.67;;;;;;;;;;12660677;23;20650;-72
2022/04/16 21:45:44;;;;;;;3.42;3.15;;;;;;;;;;12662260;23;20575;-73
2022/04/16 21:50:45;;;;;;;13.10;8.82;;;;;;;;;;12660658;23;20681;-74
2022/04/16 21:55:46;;;;;;;9.20;7.75;;;;;;;;;;12660760;23;20283;-74
2022/04/16 22:01:05;;;;;;;6.18;5.75;;;;;;;;;;12659349;23;20196;-74
2022/04/16 22:06:06;;;;;;;5.25;4.95;;;;;;;;;;12660549;23;20184;-72
2022/04/16 22:11:07;;;;;;;6.25;5.68;;;;;;;;;;12659248;23;20180;-73
2022/04/16 22:16:08;;;;;;;4.70;4.00;;;;;;;;;;12658421;23;20646;-67
2022/04/16 22:21:09;;;;;;;3.63;3.50;;;;;;;;;;12660979;23;20240;-73
2022/04/16 22:26:10;;;;;;;3.42;3.17;;;;;;;;;;12659359;23;20558;-73
2022/04/16 22:31:11;;;;;;;3.63;3.42;;;;;;;;;;12659074;23;20205;-74
2022/04/16 22:36:13;;;;;;;4.65;4.25;;;;;;;;;;12661302;23;20265;-74
2022/04/16 22:41:14;;;;;;;4.32;4.03;;;;;;;;;;12660269;23;20725;-74
2022/04/16 22:46:15;;;;;;;4.45;4.15;;;;;;;;;;12661595;23;20264;-74
2022/04/16 22:51:16;;;;;;;3.78;3.45;;;;;;;;;;12630816;23;20750;-74
2022/04/16 22:56:18;;;;;;;4.22;4.03;;;;;;;;;;12660014;23;20279;-75
2022/04/16 23:01:19;;;;;;;4.13;3.83;;;;;;;;;;12659909;23;20196;-74
2022/04/16 23:06:20;;;;;;;6.22;5.65;;;;;;;;;;12663538;23;20181;-75
2022/04/16 23:11:22;;;;;;;7.88;6.57;;;;;;;;;;12638248;23;20213;-74
2022/04/16 23:16:39;;;;;;;8.68;6.97;;;;;;;;;;12664718;23;20531;-73
2022/04/16 23:21:40;;;;;;;8.48;7.22;;;;;;;;;;12662497;23;20199;-74
2022/04/16 23:26:41;;;;;;;6.45;5.85;;;;;;;;;;12663038;23;20580;-73
2022/04/16 23:31:42;;;;;;;5.45;4.95;;;;;;;;;;12663146;23;20347;-74
2022/04/16 23:36:43;;;;;;;7.65;5.82;;;;;;;;;;12664011;23;20567;-74
2022/04/16 23:41:44;;;;;;;6.05;5.45;;;;;;;;;;12664661;23;20204;-72
2022/04/16 23:46:57;;;;;;;7.15;6.53;;;;;;;;;;12663972;23;20189;-73
2022/04/16 23:52:00;;;;;;;6.50;5.45;;;;;;;;;;12663054;23;20189;-73
2022/04/16 23:57:02;;;;;;;4.32;4.03;;;;;;;;;;12664053;23;20204;-72
